2000 Severe Tropical Cyclone PAUL (2000102S13128)


IBTrACS version v04r00. Visit IBTrACS website for data access.
Please direct all questions to the IBTrACS Q and A forum

Storm track - Intensity - Wind Radii - Intensity Data - Source Data - All data

Summary Information

Satellite image near maximum intensity
Storm ID 2000102S13128
Start Apr 10 22Z
Max Intensity 130 kt (Apr 16 06Z), 915 mb (Apr 15 03Z)
End Apr 21 18Z
ATCF IDs ,SH242000
Track status Best track data.

Storm track plot

Map of storm track

Intensity plots

Map of storm track

Radial wind information

Map of storm track

Position and Intensity Table

BASIN ISO_TIME_________ NATURE LAT LON WMO WIND WMO PRES USA WIND BOM WIND BOM PRES NEUMANN WIND
degrees north degrees east kts mb kts kts mb kts
SI 2000-04-10 22:00:00 NR -13.00 127.50 25 1000 25 1000
SI 2000-04-11 00:00:00 TS -13.05 127.27 20 25 1000 20
SI 03:00:00 TS -12.98 126.50 22 25 1000 22
SI 04:00:00 TS -12.96 126.24 25 1000 23 25 1000 23
SI 06:00:00 TS -12.93 125.74 25 25 1000 25
SI 09:00:00 TS -12.95 125.12 25 25 1000 25
SI 10:00:00 TS -12.96 124.93 25 1000 25 25 1000 25
SI 12:00:00 TS -13.00 124.51 25 25 1000 25
SI 15:00:00 TS -13.07 123.80 25 25 1000 25
SI 16:00:00 TS -13.09 123.54 25 1000 25 25 1000 25
SI 18:00:00 TS -13.13 122.98 25 25 1000 25
SI 21:00:00 TS -13.19 121.99 25 25 1000 25
SI 22:00:00 TS -13.20 121.64 25 1000 25 25 1000 25
SI 2000-04-12 00:00:00 TS -13.22 120.95 25 25 1000 25
SI 03:00:00 TS -13.16 119.97 25 25 1000 25
SI 04:00:00 TS -13.14 119.66 25 1000 25 25 1000 25
SI 06:00:00 TS -13.10 119.07 25 28 998 25
SI 09:00:00 TS -13.09 118.27 25 33 995 25
SI 10:00:00 TS -13.10 118.02 35 995 25 35 995 25
SI 12:00:00 TS -13.11 117.50 25 35 995 25
SI 15:00:00 TS -13.15 116.70 27 35 995 27
SI 16:00:00 TS -13.18 116.44 35 995 28 35 995 28
SI 18:00:00 TS -13.29 115.93 30 36 993 30
SI 21:00:00 TS -13.55 115.13 30 39 990 30
SI 22:00:00 TS -13.65 114.87 40 990 30 40 990 30
SI 2000-04-13 00:00:00 TS -13.82 114.37 30 40 990 30
SI 03:00:00 TS -13.93 113.71 32 40 990 32
SI 04:00:00 TS -13.96 113.50 40 990 33 40 990 33
SI 06:00:00 TS -14.04 113.07 35 44 986 35
SI 09:00:00 TS -14.27 112.33 37 52 981 37
SI 10:00:00 TS -14.36 112.07 55 980 38 55 980 38
SI 12:00:00 TS -14.53 111.56 40 58 976 40
SI 15:00:00 TS -14.72 110.83 45 63 971 45
SI 16:00:00 TS -14.77 110.60 65 970 46 65 970 46
SI 18:00:00 TS -14.85 110.16 50 69 966 50
SI 21:00:00 TS -14.97 109.57 55 77 961 55
SI 22:00:00 TS -14.99 109.38 80 960 56 80 960 56
SI 2000-04-14 00:00:00 TS -15.03 109.03 60 80 958 60
SI 03:00:00 TS -15.05 108.54 65 80 955 65
SI 04:00:00 TS -15.05 108.38 80 955 66 80 955 66
SI 06:00:00 TS -15.05 108.05 70 84 950 70
SI 09:00:00 TS -15.03 107.53 80 92 942 80
SI 10:00:00 TS -15.01 107.36 95 940 83 95 940 83
SI 12:00:00 TS -14.98 107.03 90 96 936 90
SI 15:00:00 TS -14.89 106.52 95 99 931 95
SI 16:00:00 TS -14.86 106.34 100 930 96 100 930 96
SI 18:00:00 TS -14.78 105.98 100 103 926 100
SI 21:00:00 TS -14.65 105.46 105 108 921 105
SI 22:00:00 TS -14.60 105.29 110 920 106 110 920 106
SI 2000-04-15 00:00:00 TS -14.49 104.93 110 113 918 110
SI 03:00:00 TS -14.32 104.36 117 118 915 117
SI 04:00:00 TS -14.27 104.18 120 915 120 120 915 120
SI 06:00:00 TS -14.19 103.83 125 120 915 125
SI 09:00:00 TS -14.07 103.35 125 120 915 125
SI 10:00:00 TS -14.03 103.19 120 915 125 120 915 125
SI 12:00:00 TS -13.92 102.87 125 120 915 125
SI 15:00:00 TS -13.77 102.34 125 120 915 125
SI 16:00:00 TS -13.73 102.17 120 915 125 120 915 125
SI 18:00:00 TS -13.68 101.83 125 116 916 125
SI 21:00:00 TS -13.66 101.40 125 111 919 125
SI 22:00:00 TS -13.66 101.27 110 920 125 110 920 125
SI 2000-04-16 00:00:00 TS -13.66 101.01 125 110 923 125
SI 03:00:00 TS -13.66 100.61 127 110 928 127
SI 04:00:00 TS -13.66 100.47 110 930 128 110 930 128
SI 06:00:00 TS -13.66 100.21 130 108 933 130
SI 09:00:00 TS -13.69 99.84 127 105 938 127
SI 10:00:00 TS -13.71 99.71 105 940 126 105 940 126
SI 12:00:00 TS -13.75 99.47 125 101 943 125
SI 15:00:00 TS -13.82 99.12 125 96 948 125
SI 16:00:00 TS -13.84 99.01 95 950 125 95 950 125
SI 18:00:00 TS -13.87 98.77 125 93 951 125
SI 21:00:00 TS -13.90 98.37 122 90 954 122
SI 22:00:00 TS -13.91 98.24 90 955 121 90 955 121
SI 2000-04-17 00:00:00 TS -13.95 97.99 120 90 955 120
SI 03:00:00 TS -14.01 97.69 117 90 955 117
SI 04:00:00 TS -14.04 97.60 90 955 116 90 955 116
SI 06:00:00 TS -14.11 97.41 115 90 955 115
SI 09:00:00 TS -14.24 97.08 115 90 955 115
SI 10:00:00 TS -14.29 96.97 90 955 115 90 955 115
SI 12:00:00 TS -14.37 96.78 115 90 955 115
SI 15:00:00 TS -14.47 96.57 112 90 955 112
SI 16:00:00 TS -14.49 96.52 90 955 111 90 955 111
SI 18:00:00 TS -14.53 96.41 110 88 955 110
SI 21:00:00 TS -14.55 96.22 107 85 955 107
SI 22:00:00 TS -14.55 96.16 85 955 106 85 955 106
SI 2000-04-18 00:00:00 TS -14.57 96.05 105 83 955 105
SI 03:00:00 TS -14.60 95.91 102 80 955 102
SI 04:00:00 TS -14.60 95.87 80 955 101 80 955 101
SI 06:00:00 TS -14.60 95.81 100 80 955 100
SI 09:00:00 TS -14.60 95.71 97 80 955 97
SI 10:00:00 TS -14.60 95.68 80 955 96 80 955 96
SI 12:00:00 TS -14.62 95.61 95 80 955 95
SI 15:00:00 TS -14.65 95.51 95 80 955 95
SI 16:00:00 TS -14.66 95.48 80 955 95 80 955 95
SI 18:00:00 TS -14.68 95.43 95 76 958 95
SI 21:00:00 TS -14.73 95.36 92 71 963 92
SI 22:00:00 TS -14.75 95.34 70 965 91 70 965 91
SI 2000-04-19 00:00:00 TS -14.77 95.29 90 70 965 90
SI 03:00:00 TS -14.77 95.24 85 70 965 85
SI 04:00:00 TS -14.77 95.22 70 965 83 70 965 83
SI 06:00:00 TS -14.79 95.18 80 66 968 80
SI 09:00:00 TS -14.83 95.11 72 61 973 72
SI 10:00:00 TS -14.83 95.09 60 975 69 60 975 69
SI 12:00:00 TS -14.83 95.07 65 56 978 65
SI 15:00:00 TS -14.81 95.01 65 51 983 65
SI 16:00:00 TS -14.80 94.99 50 985 65 50 985 65
SI 18:00:00 TS -14.80 94.91 65 50 985 65
SI 21:00:00 TS -14.80 94.76 60 50 985 60
SI 22:00:00 TS -14.79 94.71 50 985 58 50 985 58
SI 2000-04-20 00:00:00 TS -14.77 94.61 55 46 986 55
SI 03:00:00 TS -14.76 94.45 52 41 989 52
SI 04:00:00 TS -14.77 94.38 40 990 51 40 990 51
SI 06:00:00 TS -14.81 94.24 50 37 992 50
SI 08:00:00 TS -14.85 94.09 35 995 48 35 995 48
SI 09:00:00 TS -14.85 94.00 47 47
SI 12:00:00 TS -14.90 93.80 45 45
SI 15:00:00 TS -14.95 93.60 40 40
SI 18:00:00 TS -15.00 93.40 35 35
SI 21:00:00 TS -15.05 93.22 35 35
SI 2000-04-21 00:00:00 TS -15.10 93.00 35 35
SI 03:00:00 TS -15.15 92.67 35 35
SI 06:00:00 TS -15.20 92.30 35 35
SI 09:00:00 TS -15.25 91.95 35 35
SI 12:00:00 TS -15.30 91.60 35 35
SI 15:00:00 TS -15.35 91.25 30 30
SI 18:00:00 TS -15.40 90.90 25 25

Source Information

Agency Information
USA bsh242000.txt
TOKYO
CMA
HKO
NEWDELHI
REUNION
BOM IDCKMSTM0S.csv:Line=20745:PAUL
NADI
WELLINGTON
DS824
TD9636
TD9635
NEUMANN tracks.sh:Storm=1200:PAUL:24S:BSH242000
MLC

All available IBTrACS Data

SEASON BASIN SUBBASIN ISO_TIME_________ NATURE LAT LON WMO WIND WMO PRES WMO AGENCY DIST2LAND LANDFALL IFLAG USA AGENCY USA ATCF_ID USA LAT USA LON USA STATUS USA WIND USA SSHS BOM LAT BOM LON BOM TYPE BOM WIND BOM PRES BOM CI BOM ROCI BOM EYE BOM POS_METHOD BOM PRES_METHOD NEUMANN LAT NEUMANN LON NEUMANN CLASS NEUMANN WIND STORM SPEED STORM DIR
Year degrees north degrees east kts mb km km degrees north degrees east kts 1 degrees north degrees east kts mb 1 nmile nmile degrees north degrees east kts kts degrees
2000 SI WA 2000-04-10 22:00:00 NR -13.00 127.50 25 1000 bom 99 92 ______O_______ -1 -13.00 127.50 20 25 1000 2.00 215 3 5 7 258
2000 SI WA 2000-04-11 00:00:00 TS -13.05 127.27 81 79 O_____P_____O_ jtwc_sh SH242000 -13.10 127.40 TD 20 -1 -13.00 127.14 20 25 1000 215 -13.10 127.40 TC 20 12 271
2000 SI WA 03:00:00 TS -12.98 126.50 99 99 P_____P_____P_ SH242000 -12.97 126.43 TD 22 -1 -13.00 126.59 20 25 1000 215 -12.97 126.43 TC 22 15 275
2000 SI WA 04:00:00 TS -12.96 126.24 25 1000 bom 112 111 P_____O_____P_ SH242000 -12.94 126.13 TD 23 -1 -13.00 126.40 20 25 1000 2.00 215 3 5 -12.94 126.13 TC 23 15 274
2000 SI WA 06:00:00 TS -12.93 125.74 130 130 O_____P_____O_ jtwc_sh SH242000 -12.90 125.60 TD 25 -1 -13.00 126.02 20 25 1000 215 -12.90 125.60 TC 25 13 271
2000 SI WA 09:00:00 TS -12.95 125.12 163 155 P_____P_____P_ SH242000 -12.92 124.98 TD 25 -1 -13.00 125.42 20 25 1000 215 -12.92 124.98 TC 25 12 268
2000 SI WA 10:00:00 TS -12.96 124.93 25 1000 bom 164 164 P_____O_____P_ SH242000 -12.94 124.79 TD 25 -1 -13.00 125.20 20 25 1000 2.00 215 3 5 -12.94 124.79 TC 25 12 265
2000 SI WA 12:00:00 TS -13.00 124.51 187 187 O_____P_____O_ jtwc_sh SH242000 -13.00 124.40 TD 25 -1 -13.00 124.74 20 25 1000 215 -13.00 124.40 TC 25 13 265
2000 SI WA 15:00:00 TS -13.07 123.80 225 225 P_____P_____P_ SH242000 -13.10 123.72 TD 25 -1 -13.00 123.97 20 25 1000 215 -13.10 123.72 TC 25 14 265
2000 SI WA 16:00:00 TS -13.09 123.54 25 1000 bom 248 248 P_____O_____P_ SH242000 -13.14 123.46 TD 25 -1 -13.00 123.70 20 25 1000 2.00 215 3 5 -13.14 123.46 TC 25 16 266
2000 SI WA 18:00:00 TS -13.13 122.98 290 290 O_____P_____O_ jtwc_sh SH242000 -13.20 122.90 TD 25 -1 -12.99 123.13 20 25 1000 215 -13.20 122.90 TC 25 18 266
2000 SI WA 21:00:00 TS -13.19 121.99 353 350 P_____P_____P_ SH242000 -13.29 121.88 TD 25 -1 -12.99 122.21 20 25 1000 215 -13.29 121.88 TC 25 20 267
2000 SI WA 22:00:00 TS -13.20 121.64 25 1000 bom 346 329 P_____O_____P_ SH242000 -13.30 121.52 TD 25 -1 -13.00 121.90 20 25 1000 2.00 215 3 5 -13.30 121.52 TC 25 20 268
2000 SI WA 2000-04-12 00:00:00 TS -13.22 120.95 329 324 O_____P_____O_ jtwc_sh SH242000 -13.30 120.80 TD 25 -1 -13.05 121.26 20 25 1000 215 -13.30 120.80 TC 25 20 271
2000 SI WA 03:00:00 TS -13.16 119.97 329 322 P_____P_____P_ SH242000 -13.16 119.80 TD 25 -1 -13.16 120.31 20 25 1000 215 -13.16 119.80 TC 25 19 274
2000 SI WA 04:00:00 TS -13.14 119.66 25 1000 bom 325 325 P_____O_____P_ SH242000 -13.11 119.49 TD 25 -1 -13.20 120.00 20 25 1000 2.00 215 3 5 -13.11 119.49 TC 25 18 274
2000 SI WA 06:00:00 TS -13.10 119.07 346 346 O_____P_____O_ jtwc_sh SH242000 -13.00 118.90 TD 25 -1 -13.30 119.42 20 28 998 215 -13.00 118.90 TC 25 16 272
2000 SI WA 09:00:00 TS -13.09 118.27 385 385 P_____P_____P_ SH242000 -12.91 118.12 TD 25 -1 -13.46 118.58 20 33 995 215 -12.91 118.12 TC 25 15 270
2000 SI WA 10:00:00 TS -13.10 118.02 35 995 bom 399 399 P_____O_____P_ SH242000 -12.90 117.88 TD 25 -1 -13.50 118.30 30 35 995 3.00 215 3 5 -12.90 117.88 TC 25 15 268
2000 SI WA 12:00:00 TS -13.11 117.50 418 418 O_____P_____O_ jtwc_sh SH242000 -12.90 117.40 TD 25 -1 -13.54 117.69 30 35 995 215 -12.90 117.40 TC 25 15 268
2000 SI WA 15:00:00 TS -13.15 116.70 460 460 P_____P_____P_ SH242000 -12.94 116.66 TD 27 -1 -13.58 116.79 30 35 995 215 -12.94 116.66 TC 27 16 266
2000 SI WA 16:00:00 TS -13.18 116.44 35 995 bom 463 463 P_____O_____P_ SH242000 -12.98 116.41 TD 28 -1 -13.60 116.50 30 35 995 3.00 215 3 5 -12.98 116.41 TC 28 15 260
2000 SI WA 18:00:00 TS -13.29 115.93 484 484 O_____P_____O_ jtwc_sh SH242000 -13.10 115.90 TD 30 -1 -13.66 115.98 30 36 993 215 -13.10 115.90 TC 30 16 254
2000 SI WA 21:00:00 TS -13.55 115.13 534 534 P_____P_____P_ SH242000 -13.45 115.08 TD 30 -1 -13.76 115.24 30 39 990 215 -13.45 115.08 TC 30 16 250
2000 SI WA 22:00:00 TS -13.65 114.87 40 990 bom 549 548 P_____O_____P_ SH242000 -13.58 114.81 TD 30 -1 -13.80 115.00 30 40 990 3.00 215 3 5 -13.58 114.81 TC 30 16 250
2000 SI WA 2000-04-13 00:00:00 TS -13.82 114.37 560 560 O_____P_____O_ jtwc_sh SH242000 -13.80 114.30 TD 30 -1 -13.86 114.50 30 40 990 215 -13.80 114.30 TC 30 14 256
2000 SI WA 03:00:00 TS -13.93 113.71 579 579 P_____P_____P_ SH242000 -13.91 113.69 TD 32 -1 -13.96 113.75 30 40 990 215 -13.91 113.69 TC 32 13 261
2000 SI WA 04:00:00 TS -13.96 113.50 40 990 bom 594 594 P_____O_____P_ SH242000 -13.94 113.50 TD 33 -1 -14.00 113.50 30 40 990 3.00 215 3 5 -13.94 113.50 TC 33 13 260
2000 SI WA 06:00:00 TS -14.04 113.07 604 604 O_____P_____O_ jtwc_sh SH242000 -14.00 113.10 TS 35 0 -14.11 113.00 30 44 986 215 -14.00 113.10 TC 35 14 255
2000 SI WA 09:00:00 TS -14.27 112.33 658 658 P_____P_____P_ SH242000 -14.25 112.37 TS 37 0 -14.32 112.25 30 52 981 215 -14.25 112.37 TC 37 15 251
2000 SI WA 10:00:00 TS -14.36 112.07 55 980 bom 673 672 P_____O_____P_ SH242000 -14.34 112.11 TS 38 0 -14.40 112.00 30 55 980 4.00 215 3 5 -14.34 112.11 TC 38 16 251
2000 SI WA 12:00:00 TS -14.53 111.56 683 683 O_____P_____O_ jtwc_sh SH242000 -14.50 111.60 TS 40 0 -14.60 111.48 30 58 976 215 -14.50 111.60 TC 40 15 253
2000 SI WA 15:00:00 TS -14.72 110.83 712 712 P_____P_____P_ SH242000 -14.62 110.88 TS 45 0 -14.91 110.73 30 63 971 215 -14.62 110.88 TC 45 14 256
2000 SI WA 16:00:00 TS -14.77 110.60 65 970 bom 726 726 P_____O_____P_ SH242000 -14.65 110.65 TS 46 0 -15.00 110.50 40 65 970 4.50 215 3 5 -14.65 110.65 TC 46 13 259
2000 SI WA 18:00:00 TS -14.85 110.16 735 735 O_____P_____O_ jtwc_sh SH242000 -14.70 110.20 TS 50 0 -15.15 110.09 40 69 966 215 -14.70 110.20 TC 50 12 259
2000 SI WA 21:00:00 TS -14.97 109.57 770 770 P_____P_____P_ SH242000 -14.81 109.57 TS 55 0 -15.28 109.56 40 77 961 215 -14.81 109.57 TC 55 12 259
2000 SI WA 22:00:00 TS -14.99 109.38 80 960 bom 774 774 P_____O_____P_ SH242000 -14.84 109.37 TS 56 0 -15.30 109.40 40 80 960 5.00 215 3 5 -14.84 109.37 TC 56 10 262
2000 SI WA 2000-04-14 00:00:00 TS -15.03 109.03 783 783 O_____P_____O_ jtwc_sh SH242000 -14.90 109.00 TS 60 0 -15.30 109.09 40 80 958 215 -14.90 109.00 TC 60 10 266
2000 SI WA 03:00:00 TS -15.05 108.54 809 809 P_____P_____P_ SH242000 -14.96 108.48 TS 65 1 -15.23 108.66 40 80 955 215 -14.96 108.48 TC 65 9 268
2000 SI WA 04:00:00 TS -15.05 108.38 80 955 bom 812 806 P_____O_____P_ SH242000 -14.98 108.32 TS 66 1 -15.20 108.50 40 80 955 5.00 215 3 5 -14.98 108.32 TC 66 10 271
2000 SI WA 06:00:00 TS -15.05 108.05 807 807 O_____P_____O_ jtwc_sh SH242000 -15.00 108.00 TY 70 1 -15.14 108.14 40 84 950 215 -15.00 108.00 TC 70 10 272
2000 SI WA 09:00:00 TS -15.03 107.53 812 812 P_____P_____P_ SH242000 -15.02 107.51 TY 80 1 -15.04 107.58 40 92 942 215 -15.02 107.51 TC 80 10 273
2000 SI WA 10:00:00 TS -15.01 107.36 95 940 bom 813 813 P_____O_____P_ SH242000 -15.02 107.34 TY 83 2 -15.00 107.40 40 95 940 5.50 215 10 3 5 -15.02 107.34 TC 83 10 276
2000 SI WA 12:00:00 TS -14.98 107.03 820 813 O_____P_____O_ jtwc_sh SH242000 -15.00 107.00 TY 90 2 -14.93 107.10 40 96 936 215 -15.00 107.00 TC 90 10 278
2000 SI WA 15:00:00 TS -14.89 106.52 818 818 P_____P_____P_ SH242000 -14.92 106.45 TY 95 2 -14.83 106.66 40 99 931 215 -14.92 106.45 TC 95 10 280
2000 SI WA 16:00:00 TS -14.86 106.34 100 930 bom 822 811 P_____O_____P_ SH242000 -14.89 106.26 TY 96 3 -14.80 106.50 40 100 930 6.00 215 10 3 5 -14.89 106.26 TC 96 11 282
2000 SI WA 18:00:00 TS -14.78 105.98 819 813 O_____P_____O_ jtwc_sh SH242000 -14.80 105.90 TY 100 3 -14.74 106.15 40 103 926 215 -14.80 105.90 TC 100 10 284
2000 SI WA 21:00:00 TS -14.65 105.46 823 813 P_____P_____P_ SH242000 -14.66 105.40 TY 105 3 -14.64 105.59 40 108 921 215 -14.66 105.40 TC 105 10 285
2000 SI WA 22:00:00 TS -14.60 105.29 110 920 bom 815 807 P_____O_____P_ SH242000 -14.61 105.24 TY 106 3 -14.60 105.40 40 110 920 6.50 215 10 3 5 -14.61 105.24 TC 106 11 288
2000 SI WA 2000-04-15 00:00:00 TS -14.49 104.93 811 800 O_____P_____O_ jtwc_sh SH242000 -14.50 104.90 TY 110 3 -14.47 104.99 40 113 918 215 -14.50 104.90 TC 110 11 288
2000 SI WA 03:00:00 TS -14.32 104.36 803 803 P_____P_____P_ SH242000 -14.35 104.35 TY 117 4 -14.25 104.39 40 118 915 215 -14.35 104.35 TC 117 11 287
2000 SI WA 04:00:00 TS -14.27 104.18 120 915 bom 809 801 P_____O_____P_ SH242000 -14.30 104.16 TY 120 4 -14.20 104.20 40 120 915 7.00 215 10 3 5 -14.30 104.16 TC 120 11 284
2000 SI WA 06:00:00 TS -14.19 103.83 812 806 O_____P_____O_ jtwc_sh SH242000 -14.20 103.80 ST 125 4 -14.16 103.88 40 120 915 215 -14.20 103.80 TC 125 10 284
2000 SI WA 09:00:00 TS -14.07 103.35 823 813 P_____P_____P_ SH242000 -14.04 103.30 ST 125 4 -14.13 103.44 40 120 915 215 -14.04 103.30 TC 125 10 284
2000 SI WA 10:00:00 TS -14.03 103.19 120 915 bom 817 817 P_____O_____P_ SH242000 -13.99 103.14 ST 125 4 -14.10 103.30 40 120 915 7.00 215 10 3 5 -13.99 103.14 TC 125 10 287
2000 SI WA 12:00:00 TS -13.92 102.87 822 822 O_____P_____O_ jtwc_sh SH242000 -13.90 102.80 ST 125 4 -13.97 103.00 40 120 915 215 -13.90 102.80 TC 125 10 287
2000 SI WA 15:00:00 TS -13.77 102.34 845 835 P_____P_____P_ SH242000 -13.78 102.23 ST 125 4 -13.76 102.55 40 120 915 215 -13.78 102.23 TC 125 11 286
2000 SI WA 16:00:00 TS -13.73 102.17 120 915 bom 839 839 P_____O_____P_ SH242000 -13.75 102.05 ST 125 4 -13.70 102.40 40 120 915 7.00 215 10 3 5 -13.75 102.05 TC 125 10 281
2000 SI WA 18:00:00 TS -13.68 101.83 857 857 O_____P_____O_ jtwc_sh SH242000 -13.70 101.70 ST 125 4 -13.64 102.09 40 116 916 215 -13.70 101.70 TC 125 9 276
2000 SI WA 21:00:00 TS -13.66 101.40 877 877 P_____P_____P_ SH242000 -13.68 101.28 ST 125 4 -13.60 101.64 40 111 919 215 -13.68 101.28 TC 125 8 272
2000 SI WA 22:00:00 TS -13.66 101.27 110 920 bom 882 882 P_____O_____P_ SH242000 -13.69 101.15 ST 125 4 -13.60 101.50 40 110 920 6.50 215 10 3 5 -13.69 101.15 TC 125 8 269
2000 SI WA 2000-04-16 00:00:00 TS -13.66 101.01 899 899 O_____P_____O_ jtwc_sh SH242000 -13.70 100.90 ST 125 4 -13.59 101.23 40 110 923 215 -13.70 100.90 TC 125 8 270
2000 SI WA 03:00:00 TS -13.66 100.61 922 922 P_____P_____P_ SH242000 -13.69 100.49 ST 127 4 -13.60 100.83 40 110 928 215 -13.69 100.49 TC 127 8 270
2000 SI WA 04:00:00 TS -13.66 100.47 110 930 bom 928 928 P_____O_____P_ SH242000 -13.69 100.36 ST 128 4 -13.60 100.70 40 110 930 6.50 215 10 3 5 -13.69 100.36 TC 128 8 270
2000 SI WA 06:00:00 TS -13.66 100.21 946 946 O_____P_____O_ jtwc_sh SH242000 -13.70 100.10 ST 130 4 -13.59 100.44 40 108 933 215 -13.70 100.10 TC 130 7 267
2000 SI WA 09:00:00 TS -13.69 99.84 972 972 P_____P_____P_ SH242000 -13.74 99.74 ST 127 4 -13.59 100.04 40 105 938 215 -13.74 99.74 TC 127 7 265
2000 SI WA 10:00:00 TS -13.71 99.71 105 940 bom 979 979 P_____O_____P_ SH242000 -13.76 99.62 ST 126 4 -13.60 99.90 40 105 940 6.00 215 10 3 5 -13.76 99.62 TC 126 7 260
2000 SI WA 12:00:00 TS -13.75 99.47 1001 1001 O_____P_____O_ jtwc_sh SH242000 -13.80 99.40 ST 125 4 -13.66 99.60 40 101 943 215 -13.80 99.40 TC 125 7 259
2000 SI WA 15:00:00 TS -13.82 99.12 1029 1029 P_____P_____P_ SH242000 -13.85 99.11 ST 125 4 -13.77 99.15 40 96 948 215 -13.85 99.11 TC 125 7 259
2000 SI WA 16:00:00 TS -13.84 99.01 95 950 bom 1036 1036 P_____O_____P_ SH242000 -13.87 99.01 ST 125 4 -13.80 99.00 40 95 950 5.50 215 10 3 5 -13.87 99.01 TC 125 7 263
2000 SI WA 18:00:00 TS -13.87 98.77 1059 1059 O_____P_____O_ jtwc_sh SH242000 -13.90 98.80 ST 125 4 -13.80 98.71 40 93 951 215 -13.90 98.80 TC 125 7 265
2000 SI WA 21:00:00 TS -13.90 98.37 1088 1088 P_____P_____P_ SH242000 -13.95 98.40 ST 122 4 -13.79 98.32 40 90 954 215 -13.95 98.40 TC 122 8 265
2000 SI WA 22:00:00 TS -13.91 98.24 90 955 bom 1103 1103 P_____O_____P_ SH242000 -13.97 98.26 ST 121 4 -13.80 98.20 40 90 955 5.50 215 10 3 5 -13.97 98.26 TC 121 7 263
2000 SI WA 2000-04-17 00:00:00 TS -13.95 97.99 1119 1119 O_____P_____O_ jtwc_sh SH242000 -14.00 98.00 TY 120 4 -13.84 97.98 40 90 955 215 -14.00 98.00 TC 120 7 259
2000 SI WA 03:00:00 TS -14.01 97.69 1150 1150 P_____P_____P_ SH242000 -14.04 97.69 TY 117 4 -13.95 97.69 40 90 955 215 -14.04 97.69 TC 117 6 256
2000 SI WA 04:00:00 TS -14.04 97.60 90 955 bom 1158 1158 P_____O_____P_ SH242000 -14.06 97.60 TY 116 4 -14.00 97.60 40 90 955 5.50 215 10 3 5 -14.06 97.60 TC 116 6 250
2000 SI WA 06:00:00 TS -14.11 97.41 1181 1181 O_____P_____O_ jtwc_sh SH242000 -14.10 97.40 TY 115 4 -14.13 97.43 40 90 955 215 -14.10 97.40 TC 115 7 248
2000 SI WA 09:00:00 TS -14.24 97.08 1212 1212 P_____P_____P_ SH242000 -14.19 97.03 TY 115 4 -14.34 97.18 40 90 955 215 -14.19 97.03 TC 115 7 248
2000 SI WA 10:00:00 TS -14.29 96.97 90 955 bom 1228 1228 P_____O_____P_ SH242000 -14.23 96.91 TY 115 4 -14.40 97.10 40 90 955 5.50 215 10 3 5 -14.23 96.91 TC 115 6 247
2000 SI WA 12:00:00 TS -14.37 96.78 1251 1251 O_____P_____O_ jtwc_sh SH242000 -14.30 96.70 TY 115 4 -14.50 96.93 40 90 955 215 -14.30 96.70 TC 115 5 245
2000 SI WA 15:00:00 TS -14.47 96.57 1275 1275 P_____P_____P_ SH242000 -14.41 96.52 TY 112 3 -14.59 96.68 40 90 955 215 -14.41 96.52 TC 112 4 243
2000 SI WA 16:00:00 TS -14.49 96.52 90 955 bom 1283 1283 P_____O_____P_ SH242000 -14.44 96.48 TY 111 3 -14.60 96.60 40 90 955 5.50 215 10 3 5 -14.44 96.48 TC 111 3 250
2000 SI WA 18:00:00 TS -14.53 96.41 1291 1291 O_____P_____O_ jtwc_sh SH242000 -14.50 96.40 TY 110 3 -14.58 96.43 40 88 955 215 -14.50 96.40 TC 110 4 259
2000 SI WA 21:00:00 TS -14.55 96.22 1307 1307 P_____P_____P_ SH242000 -14.57 96.24 TY 107 3 -14.51 96.18 40 85 955 215 -14.57 96.24 TC 107 4 264
2000 SI WA 22:00:00 TS -14.55 96.16 85 955 bom 1315 1315 P_____O_____P_ SH242000 -14.58 96.19 TY 106 3 -14.50 96.10 40 85 955 5.00 215 10 3 5 -14.58 96.19 TC 106 3 261
2000 SI WA 2000-04-18 00:00:00 TS -14.57 96.05 1331 1331 O_____P_____O_ jtwc_sh SH242000 -14.60 96.10 TY 105 3 -14.52 95.95 40 83 955 215 -14.60 96.10 TC 105 3 259
2000 SI WA 03:00:00 TS -14.60 95.91 1339 1339 P_____P_____P_ SH242000 -14.61 95.99 TY 102 3 -14.58 95.75 40 80 955 215 -14.61 95.99 TC 102 3 260
2000 SI WA 04:00:00 TS -14.60 95.87 80 955 bom 1339 1339 P_____O_____P_ SH242000 -14.61 95.96 TY 101 3 -14.60 95.70 40 80 955 5.00 215 10 3 5 -14.61 95.96 TC 101 2 270
2000 SI WA 06:00:00 TS -14.60 95.81 1348 1348 O_____P_____O_ jtwc_sh SH242000 -14.60 95.90 TY 100 3 -14.60 95.62 40 80 955 215 -14.60 95.90 TC 100 2 272
2000 SI WA 09:00:00 TS -14.60 95.71 1356 1356 P_____P_____P_ SH242000 -14.60 95.80 TY 97 3 -14.59 95.53 40 80 955 215 -14.60 95.80 TC 97 2 270
2000 SI WA 10:00:00 TS -14.60 95.68 80 955 bom 1356 1356 P_____O_____P_ SH242000 -14.60 95.77 TY 96 3 -14.60 95.50 40 80 955 5.00 215 10 3 5 -14.60 95.77 TC 96 2 257
2000 SI WA 12:00:00 TS -14.62 95.61 1364 1364 O_____P_____O_ jtwc_sh SH242000 -14.60 95.70 TY 95 2 -14.66 95.42 40 80 955 215 -14.60 95.70 TC 95 2 253
2000 SI WA 15:00:00 TS -14.65 95.51 1380 1380 P_____P_____P_ SH242000 -14.59 95.60 TY 95 2 -14.77 95.32 40 80 955 215 -14.59 95.60 TC 95 2 251
2000 SI WA 16:00:00 TS -14.66 95.48 80 955 bom 1380 1380 P_____O_____P_ SH242000 -14.59 95.57 TY 95 2 -14.80 95.30 40 80 955 5.00 215 10 3 5 -14.59 95.57 TC 95 2 249
2000 SI WA 18:00:00 TS -14.68 95.43 1388 1388 O_____P_____O_ jtwc_sh SH242000 -14.60 95.50 TY 95 2 -14.85 95.29 40 76 958 215 -14.60 95.50 TC 95 2 238
2000 SI WA 21:00:00 TS -14.73 95.36 1388 1388 P_____P_____P_ SH242000 -14.65 95.39 TY 92 2 -14.89 95.30 40 71 963 215 -14.65 95.39 TC 92 2 235
2000 SI WA 22:00:00 TS -14.75 95.34 70 965 bom 1397 1397 P_____O_____P_ SH242000 -14.67 95.36 TY 91 2 -14.90 95.30 40 70 965 4.50 215 10 3 5 -14.67 95.36 TC 91 2 244
2000 SI WA 2000-04-19 00:00:00 TS -14.77 95.29 1404 1404 O_____P_____O_ jtwc_sh SH242000 -14.70 95.30 TY 90 2 -14.90 95.28 40 70 965 215 -14.70 95.30 TC 90 1 256
2000 SI WA 03:00:00 TS -14.77 95.24 1412 1412 P_____P_____P_ SH242000 -14.71 95.24 TY 85 2 -14.89 95.22 40 70 965 215 -14.71 95.24 TC 85 1 266
2000 SI WA 04:00:00 TS -14.77 95.22 70 965 bom 1412 1412 P_____O_____P_ SH242000 -14.71 95.23 TY 83 2 -14.90 95.20 40 70 965 4.50 215 3 5 -14.71 95.23 TC 83 1 249
2000 SI WA 06:00:00 TS -14.79 95.18 1412 1412 O_____P_____O_ jtwc_sh SH242000 -14.70 95.20 TY 80 1 -14.97 95.13 40 66 968 215 -14.70 95.20 TC 80 1 242
2000 SI WA 09:00:00 TS -14.83 95.11 1421 1421 P_____P_____P_ SH242000 -14.70 95.16 TY 72 1 -15.08 95.02 40 61 973 215 -14.70 95.16 TC 72 1 240
2000 SI WA 10:00:00 TS -14.83 95.09 60 975 bom 1421 1421 P_____O_____P_ SH242000 -14.70 95.14 TY 69 1 -15.10 95.00 30 60 975 4.00 215 3 5 -14.70 95.14 TC 69 1 267
2000 SI WA 12:00:00 TS -14.83 95.07 1421 1421 O_____P_____O_ jtwc_sh SH242000 -14.70 95.10 TY 65 1 -15.08 95.00 30 56 978 215 -14.70 95.10 TC 65 1 290
2000 SI WA 15:00:00 TS -14.81 95.01 1429 1429 P_____P_____P_ SH242000 -14.70 95.02 TY 65 1 -15.02 95.01 30 51 983 215 -14.70 95.02 TC 65 1 289
2000 SI WA 16:00:00 TS -14.80 94.99 50 985 bom 1429 1429 P_____O_____P_ SH242000 -14.70 94.98 TY 65 1 -15.00 95.00 30 50 985 3.50 215 3 5 -14.70 94.98 TC 65 2 273
2000 SI WA 18:00:00 TS -14.80 94.91 1438 1438 O_____P_____O_ jtwc_sh SH242000 -14.70 94.90 TY 65 1 -15.00 94.92 30 50 985 215 -14.70 94.90 TC 65 3 271
2000 SI WA 21:00:00 TS -14.80 94.76 1446 1446 P_____P_____P_ SH242000 -14.69 94.76 TY 60 0 -15.01 94.75 30 50 985 215 -14.69 94.76 TC 60 3 272
2000 SI WA 22:00:00 TS -14.79 94.71 50 985 bom 1455 1455 P_____O_____P_ SH242000 -14.69 94.71 TY 58 0 -15.00 94.70 30 50 985 3.50 215 3 5 -14.69 94.71 TC 58 3 281
2000 SI WA 2000-04-20 00:00:00 TS -14.77 94.61 1463 1463 O_____P_____O_ jtwc_sh SH242000 -14.70 94.60 TS 55 0 -14.92 94.63 30 46 986 215 -14.70 94.60 TC 55 3 277
2000 SI WA 03:00:00 TS -14.76 94.45 1472 1472 P_____P_____P_ SH242000 -14.74 94.41 TS 52 0 -14.80 94.54 30 41 989 215 -14.74 94.41 TC 52 3 270
2000 SI WA 04:00:00 TS -14.77 94.38 40 990 bom 1481 1481 P_____O_____P_ SH242000 -14.76 94.34 TS 51 0 -14.80 94.50 30 40 990 3.00 215 3 5 -14.76 94.34 TC 51 4 256
2000 SI WA 06:00:00 TS -14.81 94.24 1496 1496 O_____P_____O_ jtwc_sh SH242000 -14.80 94.20 TS 50 0 -14.87 94.41 30 37 992 215 -14.80 94.20 TC 50 4 254
2000 SI WA 08:00:00 TS -14.85 94.09 35 995 bom 1511 1511 P_____O_____P_ SH242000 -14.83 94.07 TS 48 0 -15.00 94.30 30 35 995 3.00 215 3 5 -14.83 94.07 TC 48 5 261
2000 SI WA 09:00:00 TS -14.85 94.00 1510 1510 P___________P_ SH242000 -14.85 94.00 TS 47 0 30 -14.85 94.00 TC 47 4 260
2000 SI WA 12:00:00 TS -14.90 93.80 1533 1533 O___________O_ jtwc_sh SH242000 -14.90 93.80 TS 45 0 -14.90 93.80 TC 45 4 255
2000 SI WA 15:00:00 TS -14.95 93.60 1547 1547 P___________P_ SH242000 -14.95 93.60 TS 40 0 -14.95 93.60 TC 40 4 255
2000 SI WA 18:00:00 TS -15.00 93.40 1570 1570 O___________O_ jtwc_sh SH242000 -15.00 93.40 TS 35 0 -15.00 93.40 TC 35 4 255
2000 SI WA 21:00:00 TS -15.05 93.22 1584 1584 P___________P_ SH242000 -15.05 93.22 TS 35 0 -15.05 93.22 TC 35 4 255
2000 SI WA 2000-04-21 00:00:00 TS -15.10 93.00 1607 1607 O___________O_ jtwc_sh SH242000 -15.10 93.00 TS 35 0 -15.10 93.00 TC 35 5 259
2000 SI WA 03:00:00 TS -15.15 92.67 1636 1636 P___________P_ SH242000 -15.15 92.67 TS 35 0 -15.15 92.67 TC 35 7 262
2000 SI WA 06:00:00 TS -15.20 92.30 1665 1665 O___________O_ jtwc_sh SH242000 -15.20 92.30 TS 35 0 -15.20 92.30 TC 35 7 262
2000 SI WA 09:00:00 TS -15.25 91.95 1694 1694 P___________P_ SH242000 -15.25 91.95 TS 35 0 -15.25 91.95 TC 35 7 262
2000 SI WA 12:00:00 TS -15.30 91.60 1721 1721 O___________O_ jtwc_sh SH242000 -15.30 91.60 TS 35 0 -15.30 91.60 TC 35 7 262
2000 SI WA 15:00:00 TS -15.35 91.25 1746 1746 P___________P_ SH242000 -15.35 91.25 TS 30 -1 -15.35 91.25 TC 30 7 262
2000 SI WA 18:00:00 TS -15.40 90.90 1768 O___________O_ jtwc_sh SH242000 -15.40 90.90 TD 25 -1 -15.40 90.90 TC 25 7 262